sensor_id;sensor_type;location;lat;lon;timestamp;pressure;altitude;pressure_sealevel;temperature;humidity
71043;BME280;58696;52.134;5.500;2023-04-21T00:00:15;101762.66;;;7.98;84.59
71043;BME280;58696;52.134;5.500;2023-04-21T00:02:41;101755.28;;;7.95;85.07
71043;BME280;58696;52.134;5.500;2023-04-21T00:05:09;101746.13;;;7.93;85.21
71043;BME280;58696;52.134;5.500;2023-04-21T00:07:36;101737.94;;;7.89;85.57
71043;BME280;58696;52.134;5.500;2023-04-21T00:10:06;101745.31;;;7.92;86.08
71043;BME280;58696;52.134;5.500;2023-04-21T00:12:33;101751.53;;;7.89;86.49
71043;BME280;58696;52.134;5.500;2023-04-21T00:15:00;101751.81;;;7.86;86.32
71043;BME280;58696;52.134;5.500;2023-04-21T00:17:31;101735.81;;;7.84;87.07
71043;BME280;58696;52.134;5.500;2023-04-21T00:20:00;101728.28;;;7.83;87.25
71043;BME280;58696;52.134;5.500;2023-04-21T00:22:27;101730.97;;;7.81;87.15
71043;BME280;58696;52.134;5.500;2023-04-21T00:24:53;101736.38;;;7.78;87.94
71043;BME280;58696;52.134;5.500;2023-04-21T00:27:22;101732.34;;;7.76;87.96
71043;BME280;58696;52.134;5.500;2023-04-21T00:29:51;101725.59;;;7.75;88.34
71043;BME280;58696;52.134;5.500;2023-04-21T00:32:18;101736.25;;;7.70;88.70
71043;BME280;58696;52.134;5.500;2023-04-21T00:34:49;101727.25;;;7.66;89.21
71043;BME280;58696;52.134;5.500;2023-04-21T00:37:18;101724.56;;;7.68;89.76
71043;BME280;58696;52.134;5.500;2023-04-21T00:39:44;101725.53;;;7.67;89.85
71043;BME280;58696;52.134;5.500;2023-04-21T00:42:16;101720.53;;;7.65;89.85
71043;BME280;58696;52.134;5.500;2023-04-21T00:44:45;101719.06;;;7.62;90.21
71043;BME280;58696;52.134;5.500;2023-04-21T00:47:14;101714.22;;;7.59;90.19
71043;BME280;58696;52.134;5.500;2023-04-21T00:49:40;101720.13;;;7.60;90.73
71043;BME280;58696;52.134;5.500;2023-04-21T00:52:08;101712.19;;;7.63;90.89
71043;BME280;58696;52.134;5.500;2023-04-21T00:54:37;101715.31;;;7.57;91.07
71043;BME280;58696;52.134;5.500;2023-04-21T00:57:05;101695.66;;;7.57;91.30
71043;BME280;58696;52.134;5.500;2023-04-21T00:59:33;101703.34;;;7.57;91.40
71043;BME280;58696;52.134;5.500;2023-04-21T01:01:59;101698.88;;;7.59;91.24
71043;BME280;58696;52.134;5.500;2023-04-21T01:04:27;101697.25;;;7.58;91.70
71043;BME280;58696;52.134;5.500;2023-04-21T01:06:54;101692.16;;;7.58;91.83
71043;BME280;58696;52.134;5.500;2023-04-21T01:09:20;101677.38;;;7.52;92.21
71043;BME280;58696;52.134;5.500;2023-04-21T01:12:13;101685.19;;;7.51;92.54
71043;BME280;58696;52.134;5.500;2023-04-21T01:14:44;101681.53;;;7.53;92.87
71043;BME280;58696;52.134;5.500;2023-04-21T01:17:13;101678.97;;;7.53;92.65
71043;BME280;58696;52.134;5.500;2023-04-21T01:19:41;101675.47;;;7.54;93.00
71043;BME280;58696;52.134;5.500;2023-04-21T01:22:09;101671.16;;;7.55;93.20
71043;BME280;58696;52.134;5.500;2023-04-21T01:24:44;101673.59;;;7.56;93.12
71043;BME280;58696;52.134;5.500;2023-04-21T01:27:14;101678.03;;;7.54;93.35
71043;BME280;58696;52.134;5.500;2023-04-21T01:29:45;101670.50;;;7.53;93.36
71043;BME280;58696;52.134;5.500;2023-04-21T01:32:17;101666.47;;;7.50;93.53
71043;BME280;58696;52.134;5.500;2023-04-21T01:34:48;101669.97;;;7.49;93.69
71043;BME280;58696;52.134;5.500;2023-04-21T01:37:19;101660.69;;;7.48;93.63
71043;BME280;58696;52.134;5.500;2023-04-21T01:39:54;101667.81;;;7.45;94.23
71043;BME280;58696;52.134;5.500;2023-04-21T01:42:25;101650.88;;;7.44;94.19
71043;BME280;58696;52.134;5.500;2023-04-21T01:44:54;101649.91;;;7.45;94.35
71043;BME280;58696;52.134;5.500;2023-04-21T01:47:22;101639.84;;;7.43;94.47
71043;BME280;58696;52.134;5.500;2023-04-21T01:49:49;101648.47;;;7.42;94.50
71043;BME280;58696;52.134;5.500;2023-04-21T01:52:18;101647.00;;;7.40;94.69
71043;BME280;58696;52.134;5.500;2023-04-21T01:54:47;101639.03;;;7.43;94.81
71043;BME280;58696;52.134;5.500;2023-04-21T01:57:16;101645.25;;;7.40;94.83
71043;BME280;58696;52.134;5.500;2023-04-21T01:59:48;101651.28;;;7.39;95.24
71043;BME280;58696;52.134;5.500;2023-04-21T02:02:17;101648.63;;;7.41;94.98
71043;BME280;58696;52.134;5.500;2023-04-21T02:04:46;101647.66;;;7.42;95.23
71043;BME280;58696;52.134;5.500;2023-04-21T02:07:15;101655.19;;;7.43;95.24
71043;BME280;58696;52.134;5.500;2023-04-21T02:09:41;101658.44;;;7.45;95.51
71043;BME280;58696;52.134;5.500;2023-04-21T02:12:08;101653.16;;;7.47;95.41
71043;BME280;58696;52.134;5.500;2023-04-21T02:14:36;101657.31;;;7.48;95.54
71043;BME280;58696;52.134;5.500;2023-04-21T02:17:03;101652.88;;;7.50;95.47
71043;BME280;58696;52.134;5.500;2023-04-21T02:19:30;101648.94;;;7.55;95.60
71043;BME280;58696;52.134;5.500;2023-04-21T02:21:56;101640.59;;;7.53;95.80
71043;BME280;58696;52.134;5.500;2023-04-21T02:24:23;101640.91;;;7.50;95.58
71043;BME280;58696;52.134;5.500;2023-04-21T02:26:49;101636.59;;;7.51;95.80
71043;BME280;58696;52.134;5.500;2023-04-21T02:29:18;101655.81;;;7.55;95.61
71043;BME280;58696;52.134;5.500;2023-04-21T02:31:45;101631.84;;;7.56;95.85
71043;BME280;58696;52.134;5.500;2023-04-21T02:34:26;101650.69;;;7.55;95.62
71043;BME280;58696;52.134;5.500;2023-04-21T02:36:59;101643.31;;;7.52;95.85
71043;BME280;58696;52.134;5.500;2023-04-21T02:39:26;101644.13;;;7.52;95.97
71043;BME280;58696;52.134;5.500;2023-04-21T02:41:53;101647.63;;;7.51;95.85
71043;BME280;58696;52.134;5.500;2023-04-21T02:44:19;101644.13;;;7.52;96.14
71043;BME280;58696;52.134;5.500;2023-04-21T02:46:46;101646.94;;;7.49;96.01
71043;BME280;58696;52.134;5.500;2023-04-21T02:49:12;101643.47;;;7.50;96.06
71043;BME280;58696;52.134;5.500;2023-04-21T02:51:39;101641.31;;;7.46;96.18
71043;BME280;58696;52.134;5.500;2023-04-21T02:54:05;101634.56;;;7.45;96.38
71043;BME280;58696;52.134;5.500;2023-04-21T02:56:32;101617.25;;;7.38;96.47
71043;BME280;58696;52.134;5.500;2023-04-21T02:59:02;101635.84;;;7.41;96.80
71043;BME280;58696;52.134;5.500;2023-04-21T03:01:29;101633.94;;;7.43;96.80
71043;BME280;58696;52.134;5.500;2023-04-21T03:03:57;101628.28;;;7.39;96.83
71043;BME280;58696;52.134;5.500;2023-04-21T03:06:26;101620.91;;;7.36;96.75
71043;BME280;58696;52.134;5.500;2023-04-21T03:08:53;101625.38;;;7.34;97.17
71043;BME280;58696;52.134;5.500;2023-04-21T03:11:20;101631.28;;;7.34;97.15
71043;BME280;58696;52.134;5.500;2023-04-21T03:13:46;101633.69;;;7.36;97.22
71043;BME280;58696;52.134;5.500;2023-04-21T03:16:12;101634.50;;;7.36;97.66
71043;BME280;58696;52.134;5.500;2023-04-21T03:18:39;101632.59;;;7.38;97.22
71043;BME280;58696;52.134;5.500;2023-04-21T03:21:06;101624.13;;;7.38;97.34
71043;BME280;58696;52.134;5.500;2023-04-21T03:23:32;101599.50;;;7.37;97.56
71043;BME280;58696;52.134;5.500;2023-04-21T03:26:06;101607.31;;;7.35;97.57
71043;BME280;58696;52.134;5.500;2023-04-21T03:28:35;101625.06;;;7.37;97.61
71043;BME280;58696;52.134;5.500;2023-04-21T03:31:02;101620.75;;;7.37;97.85
71043;BME280;58696;52.134;5.500;2023-04-21T03:33:30;101606.38;;;7.36;97.80
71043;BME280;58696;52.134;5.500;2023-04-21T03:35:57;101617.41;;;7.37;97.93
71043;BME280;58696;52.134;5.500;2023-04-21T03:38:23;101616.31;;;7.40;97.79
71043;BME280;58696;52.134;5.500;2023-04-21T03:40:52;101612.13;;;7.38;97.83
71043;BME280;58696;52.134;5.500;2023-04-21T03:43:21;101612.00;;;7.40;97.82
71043;BME280;58696;52.134;5.500;2023-04-21T03:45:47;101615.50;;;7.39;98.11
71043;BME280;58696;52.134;5.500;2023-04-21T03:48:14;101615.22;;;7.42;97.72
71043;BME280;58696;52.134;5.500;2023-04-21T03:50:45;101604.03;;;7.43;97.96
71043;BME280;58696;52.134;5.500;2023-04-21T03:53:14;101584.25;;;7.45;98.07
71043;BME280;58696;52.134;5.500;2023-04-21T03:55:43;101579.28;;;7.44;97.86
71043;BME280;58696;52.134;5.500;2023-04-21T03:58:17;101588.53;;;7.45;98.07
71043;BME280;58696;52.134;5.500;2023-04-21T04:00:43;101603.88;;;7.45;98.04
71043;BME280;58696;52.134;5.500;2023-04-21T04:03:10;101594.50;;;7.45;98.16
71043;BME280;58696;52.134;5.500;2023-04-21T04:05:37;101602.00;;;7.47;98.07
71043;BME280;58696;52.134;5.500;2023-04-21T04:08:04;101612.25;;;7.47;98.12
71043;BME280;58696;52.134;5.500;2023-04-21T04:10:30;101603.34;;;7.51;97.97
71043;BME280;58696;52.134;5.500;2023-04-21T04:12:57;101586.53;;;7.48;98.08
71043;BME280;58696;52.134;5.500;2023-04-21T04:15:23;101586.53;;;7.48;98.45
71043;BME280;58696;52.134;5.500;2023-04-21T04:17:50;101578.69;;;7.50;97.85
71043;BME280;58696;52.134;5.500;2023-04-21T04:20:19;101585.44;;;7.51;98.23
71043;BME280;58696;52.134;5.500;2023-04-21T04:22:45;101600.50;;;7.54;98.10
71043;BME280;58696;52.134;5.500;2023-04-21T04:25:14;101574.09;;;7.53;98.24
71043;BME280;58696;52.134;5.500;2023-04-21T04:27:42;101587.84;;;7.52;98.02
71043;BME280;58696;52.134;5.500;2023-04-21T04:30:14;101593.75;;;7.53;98.31
71043;BME280;58696;52.134;5.500;2023-04-21T04:32:44;101577.63;;;7.52;98.34
71043;BME280;58696;52.134;5.500;2023-04-21T04:35:11;101579.22;;;7.53;97.92
71043;BME280;58696;52.134;5.500;2023-04-21T04:37:38;101591.75;;;7.56;98.39
71043;BME280;58696;52.134;5.500;2023-04-21T04:40:09;101589.84;;;7.58;98.25
71043;BME280;58696;52.134;5.500;2023-04-21T04:42:40;101587.00;;;7.61;98.26
71043;BME280;58696;52.134;5.500;2023-04-21T04:45:08;101581.72;;;7.63;98.46
71043;BME280;58696;52.134;5.500;2023-04-21T04:47:34;101581.44;;;7.66;98.35
71043;BME280;58696;52.134;5.500;2023-04-21T04:50:04;101583.72;;;7.69;98.32
71043;BME280;58696;52.134;5.500;2023-04-21T04:52:31;101572.53;;;7.70;98.40
71043;BME280;58696;52.134;5.500;2023-04-21T04:54:57;101579.91;;;7.73;98.28
71043;BME280;58696;52.134;5.500;2023-04-21T04:57:24;101571.94;;;7.76;98.49
71043;BME280;58696;52.134;5.500;2023-04-21T04:59:58;101584.44;;;7.79;98.24
71043;BME280;58696;52.134;5.500;2023-04-21T05:02:24;101585.25;;;7.80;98.10
71043;BME280;58696;52.134;5.500;2023-04-21T05:04:52;101586.84;;;7.81;98.32
71043;BME280;58696;52.134;5.500;2023-04-21T05:07:21;101590.91;;;7.83;98.23
71043;BME280;58696;52.134;5.500;2023-04-21T05:09:47;101589.00;;;7.85;98.22
71043;BME280;58696;52.134;5.500;2023-04-21T05:12:19;101588.03;;;7.86;98.09
71043;BME280;58696;52.134;5.500;2023-04-21T05:14:48;101588.03;;;7.86;97.99
71043;BME280;58696;52.134;5.500;2023-04-21T05:17:17;101587.88;;;7.88;97.66
71043;BME280;58696;52.134;5.500;2023-04-21T05:19:46;101589.50;;;7.89;97.96
71043;BME280;58696;52.134;5.500;2023-04-21T05:22:15;101598.63;;;7.91;98.18
71043;BME280;58696;52.134;5.500;2023-04-21T05:24:46;101597.69;;;7.93;98.28
71043;BME280;58696;52.134;5.500;2023-04-21T05:27:13;101592.44;;;7.94;98.39
71043;BME280;58696;52.134;5.500;2023-04-21T05:29:40;101588.13;;;7.95;98.29
71043;BME280;58696;52.134;5.500;2023-04-21T05:32:09;101588.78;;;7.97;98.45
71043;BME280;58696;52.134;5.500;2023-04-21T05:34:37;101591.06;;;8.00;98.44
71043;BME280;58696;52.134;5.500;2023-04-21T05:37:04;101602.75;;;8.02;98.30
71043;BME280;58696;52.134;5.500;2023-04-21T05:39:35;101601.78;;;8.03;98.32
71043;BME280;58696;52.134;5.500;2023-04-21T05:42:07;101613.34;;;8.07;98.39
71043;BME280;58696;52.134;5.500;2023-04-21T05:44:34;101619.13;;;8.09;98.32
71043;BME280;58696;52.134;5.500;2023-04-21T05:47:01;101608.75;;;8.11;98.59
71043;BME280;58696;52.134;5.500;2023-04-21T05:49:27;101620.44;;;8.13;98.37
71043;BME280;58696;52.134;5.500;2023-04-21T05:51:56;101624.47;;;8.16;98.30
71043;BME280;58696;52.134;5.500;2023-04-21T05:54:22;101620.81;;;8.18;98.18
71043;BME280;58696;52.134;5.500;2023-04-21T05:56:54;101613.66;;;8.22;98.20
71043;BME280;58696;52.134;5.500;2023-04-21T05:59:22;101624.38;;;8.26;98.23
71043;BME280;58696;52.134;5.500;2023-04-21T06:01:51;101620.06;;;8.26;98.28
71043;BME280;58696;52.134;5.500;2023-04-21T06:04:19;101619.25;;;8.26;98.27
71043;BME280;58696;52.134;5.500;2023-04-21T06:06:46;101617.66;;;8.25;98.15
71043;BME280;58696;52.134;5.500;2023-04-21T06:09:13;101613.22;;;8.27;98.01
71043;BME280;58696;52.134;5.500;2023-04-21T06:11:41;101614.00;;;8.27;98.12
71043;BME280;58696;52.134;5.500;2023-04-21T06:14:08;101608.09;;;8.27;98.10
71043;BME280;58696;52.134;5.500;2023-04-21T06:16:35;101616.41;;;8.29;98.16
71043;BME280;58696;52.134;5.500;2023-04-21T06:19:02;101622.88;;;8.33;98.04
71043;BME280;58696;52.134;5.500;2023-04-21T06:21:28;101607.34;;;8.34;98.22
71043;BME280;58696;52.134;5.500;2023-04-21T06:23:57;101609.66;;;8.37;98.15
71043;BME280;58696;52.134;5.500;2023-04-21T06:26:26;101606.13;;;8.38;98.21
71043;BME280;58696;52.134;5.500;2023-04-21T06:28:52;101608.38;;;8.41;98.21
71043;BME280;58696;52.134;5.500;2023-04-21T06:31:19;101606.34;;;8.45;98.12
71043;BME280;58696;52.134;5.500;2023-04-21T06:33:51;101618.69;;;8.50;98.15
71043;BME280;58696;52.134;5.500;2023-04-21T06:36:17;101608.50;;;8.58;97.92
71043;BME280;58696;52.134;5.500;2023-04-21T06:38:46;101619.91;;;8.63;97.96
71043;BME280;58696;52.134;5.500;2023-04-21T06:41:12;101616.25;;;8.66;97.79
71043;BME280;58696;52.134;5.500;2023-04-21T06:43:39;101612.88;;;8.65;97.82
71043;BME280;58696;52.134;5.500;2023-04-21T06:46:06;101610.69;;;8.71;98.00
71043;BME280;58696;52.134;5.500;2023-04-21T06:48:36;101613.28;;;8.79;97.72
71043;BME280;58696;52.134;5.500;2023-04-21T06:51:02;101614.16;;;8.87;97.65
71043;BME280;58696;52.134;5.500;2023-04-21T06:53:29;101609.09;;;9.04;97.83
71043;BME280;58696;52.134;5.500;2023-04-21T06:55:55;101599.28;;;9.25;97.32
71043;BME280;58696;52.134;5.500;2023-04-21T06:58:22;101594.09;;;9.59;96.97
71043;BME280;58696;52.134;5.500;2023-04-21T07:00:50;101598.91;;;9.70;96.20
71043;BME280;58696;52.134;5.500;2023-04-21T07:03:16;101602.78;;;9.74;95.96
71043;BME280;58696;52.134;5.500;2023-04-21T07:05:43;101602.78;;;9.83;95.53
71043;BME280;58696;52.134;5.500;2023-04-21T07:08:12;101598.81;;;9.96;94.64
71043;BME280;58696;52.134;5.500;2023-04-21T07:10:39;101593.13;;;10.91;93.53
71043;BME280;58696;52.134;5.500;2023-04-21T07:13:06;101586.72;;;12.11;88.04
71043;BME280;58696;52.134;5.500;2023-04-21T07:15:35;101590.47;;;12.76;85.01
71043;BME280;58696;52.134;5.500;2023-04-21T07:18:06;101591.63;;;13.90;82.75
71043;BME280;58696;52.134;5.500;2023-04-21T07:20:33;101594.03;;;15.10;78.24
71043;BME280;58696;52.134;5.500;2023-04-21T07:23:02;101598.44;;;14.75;74.50
71043;BME280;58696;52.134;5.500;2023-04-21T07:25:28;101607.53;;;13.51;77.58
71043;BME280;58696;52.134;5.500;2023-04-21T07:27:55;101606.50;;;12.86;78.96
71043;BME280;58696;52.134;5.500;2023-04-21T07:30:24;101609.13;;;12.48;80.86
71043;BME280;58696;52.134;5.500;2023-04-21T07:32:51;101616.25;;;12.00;82.89
71043;BME280;58696;52.134;5.500;2023-04-21T07:35:20;101607.63;;;11.62;83.38
71043;BME280;58696;52.134;5.500;2023-04-21T07:37:47;101614.09;;;11.27;84.90
71043;BME280;58696;52.134;5.500;2023-04-21T07:40:13;101610.41;;;11.21;86.18
71043;BME280;58696;52.134;5.500;2023-04-21T07:42:42;101604.97;;;11.08;85.94
71043;BME280;58696;52.134;5.500;2023-04-21T07:45:09;101607.59;;;11.00;86.99
71043;BME280;58696;52.134;5.500;2023-04-21T07:47:38;101609.00;;;11.11;87.72
71043;BME280;58696;52.134;5.500;2023-04-21T07:50:06;101610.84;;;11.33;87.15
71043;BME280;58696;52.134;5.500;2023-04-21T07:52:35;101605.78;;;11.48;87.08
71043;BME280;58696;52.134;5.500;2023-04-21T07:55:04;101600.75;;;11.54;86.39
71043;BME280;58696;52.134;5.500;2023-04-21T07:57:35;101598.75;;;11.33;85.98
71043;BME280;58696;52.134;5.500;2023-04-21T08:00:05;101597.03;;;11.26;87.02
71043;BME280;58696;52.134;5.500;2023-04-21T08:02:31;101600.34;;;11.43;86.71
71043;BME280;58696;52.134;5.500;2023-04-21T08:05:02;101598.56;;;11.43;86.72
71043;BME280;58696;52.134;5.500;2023-04-21T08:07:29;101597.31;;;11.62;86.14
71043;BME280;58696;52.134;5.500;2023-04-21T08:09:59;101601.56;;;11.55;86.15
71043;BME280;58696;52.134;5.500;2023-04-21T08:12:26;101594.91;;;11.38;86.07
71043;BME280;58696;52.134;5.500;2023-04-21T08:14:55;101595.56;;;11.31;85.82
71043;BME280;58696;52.134;5.500;2023-04-21T08:17:21;101604.69;;;11.42;86.21
71043;BME280;58696;52.134;5.500;2023-04-21T08:19:48;101595.31;;;11.80;86.11
71043;BME280;58696;52.134;5.500;2023-04-21T08:22:14;101599.44;;;11.90;85.51
71043;BME280;58696;52.134;5.500;2023-04-21T08:24:41;101599.84;;;12.01;84.55
71043;BME280;58696;52.134;5.500;2023-04-21T08:27:07;101601.09;;;11.82;84.41
71043;BME280;58696;52.134;5.500;2023-04-21T08:29:34;101593.44;;;11.66;84.83
71043;BME280;58696;52.134;5.500;2023-04-21T08:32:03;101594.13;;;11.60;85.45
71043;BME280;58696;52.134;5.500;2023-04-21T08:34:33;101596.72;;;11.60;85.64
71043;BME280;58696;52.134;5.500;2023-04-21T08:37:02;101596.72;;;11.60;84.75
71043;BME280;58696;52.134;5.500;2023-04-21T08:39:31;101606.13;;;11.45;84.92
71043;BME280;58696;52.134;5.500;2023-04-21T08:42:01;101610.59;;;11.51;85.22
71043;BME280;58696;52.134;5.500;2023-04-21T08:44:28;101608.97;;;11.50;85.37
71043;BME280;58696;52.134;5.500;2023-04-21T08:46:55;101608.06;;;11.43;85.95
71043;BME280;58696;52.134;5.500;2023-04-21T08:49:28;101603.88;;;11.42;86.07
71043;BME280;58696;52.134;5.500;2023-04-21T08:51:57;101604.53;;;11.36;86.38
71043;BME280;58696;52.134;5.500;2023-04-21T08:54:27;101607.75;;;11.38;86.08
71043;BME280;58696;52.134;5.500;2023-04-21T08:56:56;101602.41;;;11.47;85.83
71043;BME280;58696;52.134;5.500;2023-04-21T08:59:37;101608.22;;;11.41;85.90
71043;BME280;58696;52.134;5.500;2023-04-21T09:02:10;101599.69;;;11.41;85.49
71043;BME280;58696;52.134;5.500;2023-04-21T09:04:41;101597.25;;;11.47;85.46
71043;BME280;58696;52.134;5.500;2023-04-21T09:07:08;101595.41;;;11.64;85.78
71043;BME280;58696;52.134;5.500;2023-04-21T09:12:20;101599.22;;;11.99;84.64
71043;BME280;58696;52.134;5.500;2023-04-21T09:14:47;101602.25;;;12.03;84.46
71043;BME280;58696;52.134;5.500;2023-04-21T09:17:15;101608.09;;;12.20;83.50
71043;BME280;58696;52.134;5.500;2023-04-21T09:19:44;101604.44;;;12.14;83.14
71043;BME280;58696;52.134;5.500;2023-04-21T09:22:14;101603.03;;;12.26;83.35
71043;BME280;58696;52.134;5.500;2023-04-21T09:24:48;101597.31;;;12.54;83.14
71043;BME280;58696;52.134;5.500;2023-04-21T09:27:15;101595.47;;;12.92;82.48
71043;BME280;58696;52.134;5.500;2023-04-21T09:29:46;101603.28;;;12.99;81.57
71043;BME280;58696;52.134;5.500;2023-04-21T09:32:18;101602.31;;;13.00;80.66
71043;BME280;58696;52.134;5.500;2023-04-21T09:34:45;101592.78;;;12.85;80.14
71043;BME280;58696;52.134;5.500;2023-04-21T09:37:15;101602.75;;;12.74;79.81
71043;BME280;58696;52.134;5.500;2023-04-21T09:39:52;101601.31;;;12.56;79.85
71043;BME280;58696;52.134;5.500;2023-04-21T09:42:33;101598.19;;;12.61;80.78
71043;BME280;58696;52.134;5.500;2023-04-21T09:45:06;101590.66;;;12.59;79.13
71043;BME280;58696;52.134;5.500;2023-04-21T09:47:58;101591.34;;;12.53;78.90
71043;BME280;58696;52.134;5.500;2023-04-21T09:50:34;101592.41;;;12.44;80.19
71043;BME280;58696;52.134;5.500;2023-04-21T09:53:23;101585.50;;;12.59;80.88
71043;BME280;58696;52.134;5.500;2023-04-21T09:55:52;101586.28;;;12.60;78.56
71043;BME280;58696;52.134;5.500;2023-04-21T09:58:22;101583.00;;;12.51;78.91
71043;BME280;58696;52.134;5.500;2023-04-21T10:00:54;101591.16;;;12.55;79.83
71043;BME280;58696;52.134;5.500;2023-04-21T10:03:26;101576.22;;;12.50;78.52
71043;BME280;58696;52.134;5.500;2023-04-21T10:05:55;101586.72;;;12.49;79.72
71043;BME280;58696;52.134;5.500;2023-04-21T10:08:22;101577.75;;;12.74;78.54
71043;BME280;58696;52.134;5.500;2023-04-21T10:10:51;101578.19;;;12.93;77.47
71043;BME280;58696;52.134;5.500;2023-04-21T10:13:20;101576.84;;;13.26;77.58
71043;BME280;58696;52.134;5.500;2023-04-21T10:15:47;101579.50;;;13.18;77.41
71043;BME280;58696;52.134;5.500;2023-04-21T10:25:52;101576.75;;;13.34;76.93
71043;BME280;58696;52.134;5.500;2023-04-21T10:28:21;101568.09;;;13.63;77.40
71043;BME280;58696;52.134;5.500;2023-04-21T10:31:19;101566.81;;;13.95;75.84
71043;BME280;58696;52.134;5.500;2023-04-21T10:36:42;101564.34;;;14.09;75.40
71043;BME280;58696;52.134;5.500;2023-04-21T10:39:09;101574.69;;;14.09;73.74
71043;BME280;58696;52.134;5.500;2023-04-21T10:41:38;101565.50;;;14.06;74.42
71043;BME280;58696;52.134;5.500;2023-04-21T10:44:12;101561.66;;;14.24;75.31
71043;BME280;58696;52.134;5.500;2023-04-21T10:46:48;101554.56;;;14.32;75.38
71043;BME280;58696;52.134;5.500;2023-04-21T10:54:24;101535.22;;;14.84;74.20
71043;BME280;58696;52.134;5.500;2023-04-21T10:56:56;101538.00;;;14.89;71.16
71043;BME280;58696;52.134;5.500;2023-04-21T10:59:29;101546.34;;;14.22;73.67
71043;BME280;58696;52.134;5.500;2023-04-21T11:02:00;101538.59;;;14.22;73.28
71043;BME280;58696;52.134;5.500;2023-04-21T11:04:27;101544.56;;;14.23;73.46
71043;BME280;58696;52.134;5.500;2023-04-21T11:07:16;101534.34;;;14.70;73.08
71043;BME280;58696;52.134;5.500;2023-04-21T11:09:43;101522.22;;;14.78;71.90
71043;BME280;58696;52.134;5.500;2023-04-21T11:12:13;101518.75;;;14.57;71.24
71043;BME280;58696;52.134;5.500;2023-04-21T11:14:45;101508.25;;;14.37;73.25
71043;BME280;58696;52.134;5.500;2023-04-21T11:17:18;101520.63;;;14.42;73.47
71043;BME280;58696;52.134;5.500;2023-04-21T11:19:55;101521.16;;;14.31;72.58
71043;BME280;58696;52.134;5.500;2023-04-21T11:22:25;101525.63;;;14.15;73.96
71043;BME280;58696;52.134;5.500;2023-04-21T11:24:56;101521.78;;;14.05;74.95
71043;BME280;58696;52.134;5.500;2023-04-21T11:27:28;101513.69;;;13.86;72.27
71043;BME280;58696;52.134;5.500;2023-04-21T11:29:55;101512.91;;;13.43;74.50
71043;BME280;58696;52.134;5.500;2023-04-21T11:32:23;101500.91;;;13.35;74.10
71043;BME280;58696;52.134;5.500;2023-04-21T11:34:49;101502.56;;;13.43;74.81
71043;BME280;58696;52.134;5.500;2023-04-21T11:39:55;101503.84;;;13.75;73.94
71043;BME280;58696;52.134;5.500;2023-04-21T11:42:22;101491.28;;;13.93;73.70
71043;BME280;58696;52.134;5.500;2023-04-21T11:44:49;101490.47;;;14.21;73.16
71043;BME280;58696;52.134;5.500;2023-04-21T11:47:21;101483.94;;;14.25;72.42
71043;BME280;58696;52.134;5.500;2023-04-21T11:52:28;101486.44;;;14.46;72.56
71043;BME280;58696;52.134;5.500;2023-04-21T11:54:59;101483.84;;;14.94;70.25
71043;BME280;58696;52.134;5.500;2023-04-21T11:57:30;101473.78;;;15.33;68.62
71043;BME280;58696;52.134;5.500;2023-04-21T12:00:02;101461.91;;;15.71;69.64
71043;BME280;58696;52.134;5.500;2023-04-21T12:02:30;101458.84;;;16.01;68.16
71043;BME280;58696;52.134;5.500;2023-04-21T12:07:25;101454.25;;;15.37;66.45
71043;BME280;58696;52.134;5.500;2023-04-21T12:09:52;101458.81;;;15.15;68.14
71043;BME280;58696;52.134;5.500;2023-04-21T12:12:21;101457.75;;;14.89;68.10
71043;BME280;58696;52.134;5.500;2023-04-21T12:14:51;101455.50;;;14.73;70.47
71043;BME280;58696;52.134;5.500;2023-04-21T12:17:18;101462.69;;;14.78;69.47
71043;BME280;58696;52.134;5.500;2023-04-21T12:19:48;101451.75;;;14.69;68.00
71043;BME280;58696;52.134;5.500;2023-04-21T12:22:16;101453.06;;;14.52;69.39
71043;BME280;58696;52.134;5.500;2023-04-21T12:24:44;101444.81;;;14.83;70.17
71043;BME280;58696;52.134;5.500;2023-04-21T12:27:13;101440.72;;;15.48;69.47
71043;BME280;58696;52.134;5.500;2023-04-21T12:29:40;101438.66;;;16.23;66.86
71043;BME280;58696;52.134;5.500;2023-04-21T12:32:08;101432.69;;;16.22;67.58
71043;BME280;58696;52.134;5.500;2023-04-21T12:34:35;101440.72;;;16.59;67.64
71043;BME280;58696;52.134;5.500;2023-04-21T12:37:02;101440.25;;;16.24;62.81
71043;BME280;58696;52.134;5.500;2023-04-21T12:39:32;101427.19;;;15.52;65.65
71043;BME280;58696;52.134;5.500;2023-04-21T12:42:01;101426.78;;;15.36;66.57
71043;BME280;58696;52.134;5.500;2023-04-21T12:44:27;101417.66;;;15.66;66.79
71043;BME280;58696;52.134;5.500;2023-04-21T12:46:57;101417.03;;;15.64;65.70
71043;BME280;58696;52.134;5.500;2023-04-21T12:49:28;101412.25;;;15.35;65.94
71043;BME280;58696;52.134;5.500;2023-04-21T12:51:55;101415.00;;;15.26;68.39
71043;BME280;58696;52.134;5.500;2023-04-21T12:54:26;101414.41;;;15.31;66.80
71043;BME280;58696;52.134;5.500;2023-04-21T12:56:53;101408.44;;;15.17;67.08
71043;BME280;58696;52.134;5.500;2023-04-21T12:59:19;101399.69;;;15.12;67.59
71043;BME280;58696;52.134;5.500;2023-04-21T13:01:49;101402.28;;;15.12;67.62
71043;BME280;58696;52.134;5.500;2023-04-21T13:04:18;101400.06;;;15.15;67.99
71043;BME280;58696;52.134;5.500;2023-04-21T13:06:45;101402.84;;;15.20;68.05
71043;BME280;58696;52.134;5.500;2023-04-21T13:09:12;101390.31;;;15.44;67.61
71043;BME280;58696;52.134;5.500;2023-04-21T13:11:40;101378.34;;;15.76;67.81
71043;BME280;58696;52.134;5.500;2023-04-21T13:14:07;101385.84;;;16.11;68.70
71043;BME280;58696;52.134;5.500;2023-04-21T13:16:36;101391.06;;;15.91;66.09
71043;BME280;58696;52.134;5.500;2023-04-21T13:19:03;101381.97;;;15.29;66.43
71043;BME280;58696;52.134;5.500;2023-04-21T13:21:32;101377.34;;;15.11;69.83
71043;BME280;58696;52.134;5.500;2023-04-21T13:23:58;101370.97;;;14.93;67.79
71043;BME280;58696;52.134;5.500;2023-04-21T13:26:30;101382.75;;;15.03;69.01
71043;BME280;58696;52.134;5.500;2023-04-21T13:28:59;101368.22;;;15.28;67.84